This is the latest recevied weather packets stored in our database for station/object NK7E-2. If no packets are shown the sender has not sent any weather packets the latest 10 day(s).
| Time | Temp. | Humidity | Pressure | Rain* | Wind** | Luminosity | Snow |
|---|---|---|---|---|---|---|---|
| 1777645516 | 17.22° C | 52% | 1019.9 hPa | 0 mm | - | - | - |
| 1777644916 | 16.67° C | 54% | 1019.9 hPa | 0 mm | - | - | - |
| 1777644316 | 16.11° C | 55% | 1019.8 hPa | 0 mm | - | - | - |
| 1777643716 | 14.44° C | 60% | 1019.7 hPa | 0 mm | - | - | - |
| 1777642516 | 13.89° C | 58% | 1018.9 hPa | 0 mm | - | - | - |
| 1777641916 | 12.78° C | 61% | 1019 hPa | 0 mm | - | - | - |
| 1777637716 | 12.78° C | 63% | 1019 hPa | 0 mm | - | - | - |
| 1777637116 | 12.78° C | 62% | 1018.9 hPa | 0 mm | - | - | - |
| 1777635316 | 12.78° C | 61% | 1018.7 hPa | 0 mm | - | - | - |
| 1777634716 | 12.78° C | 61% | 1018.8 hPa | 0 mm | - | - | - |
| 1777634116 | 13.33° C | 60% | 1018.9 hPa | 0 mm | - | - | - |
| 1777633516 | 13.33° C | 61% | 1018.9 hPa | 0 mm | - | - | - |
| 1777632916 | 13.33° C | 59% | 1019 hPa | 0 mm | - | - | - |
| 1777631716 | 13.89° C | 58% | 1019.4 hPa | 0 mm | - | - | - |
| 1777631116 | 13.89° C | 58% | 1019.1 hPa | 0 mm | - | - | - |
| 1777630516 | 14.44° C | 56% | 1019.1 hPa | 0 mm | - | - | - |
| 1777629916 | 14.44° C | 54% | 1018.9 hPa | 0 mm | - | - | - |
| 1777629316 | 14.44° C | 55% | 1018.7 hPa | 0 mm | - | - | - |
| 1777628716 | 14.44° C | 53% | 1018.5 hPa | 0 mm | - | - | - |
| 1777628116 | 15° C | 52% | 1018.6 hPa | 0 mm | - | - | - |
| 1777627516 | 15.56° C | 50% | 1018.6 hPa | 0 mm | - | - | - |
| 1777626916 | 16.11° C | 50% | 1018.7 hPa | 0 mm | - | - | - |
| 1777626316 | 16.67° C | 50% | 1018.8 hPa | 0 mm | - | - | - |
| 1777625716 | 16.67° C | 50% | 1018.9 hPa | 0 mm | - | - | - |
| 1777625116 | 16.11° C | 50% | 1018.4 hPa | 0 mm | - | - | - |
* Rain latest hour (hover to see other rain measurements)
** Current wind speed in m/s (hover to see current wind gust speed)